Gannan Xiahe Airport


Codes: ZLXH/GXH
Name: Gannan Xiahe Airport
City: Xiahe
Country: China
Elevation: 10510 ft.
Wikipedia:

Photos at Gannan Xiahe Airport


   Photos courtesy of SpottingLog. You can add your own sightings and photos by signing up for a free trial today.



No photos found.

Weather at Gannan Xiahe Airport


Time (UTC)DescriptionTempratureWindCloud coverageVisibilityPressureHumidity
26-Jun-2024 00:00Scattered Clouds11°C2 mph, NW47%10000m1015hPa69%
26-Jun-2024 03:00Light Rain12°C7 mph, NE61%10000m1014hPa64%
26-Jun-2024 06:00Light Rain16°C7 mph, NE67%10000m1010hPa53%
26-Jun-2024 09:00Overcast Clouds17°C4 mph, NE88%10000m1008hPa51%
26-Jun-2024 12:00Overcast Clouds13°C7 mph, E95%10000m1011hPa69%
26-Jun-2024 15:00Overcast Clouds9°C2 mph, NW100%10000m1014hPa81%
26-Jun-2024 18:00Overcast Clouds8°C2 mph, W100%10000m1014hPa83%
26-Jun-2024 21:00Overcast Clouds7°C4 mph, SW100%10000m1014hPa84%
27-Jun-2024 00:00Overcast Clouds11°C2 mph, SW85%10000m1012hPa74%
27-Jun-2024 03:00Overcast Clouds17°C4 mph, SE100%10000m1008hPa55%
27-Jun-2024 06:00Overcast Clouds19°C7 mph, E100%10000m1003hPa46%
27-Jun-2024 09:00Overcast Clouds17°C11 mph, E100%10000m1002hPa62%
27-Jun-2024 12:00Light Rain12°C7 mph, NE100%10000m1006hPa82%
27-Jun-2024 15:00Light Rain10°C2 mph, N100%10000m1010hPa90%
27-Jun-2024 18:00Light Rain10°C4 mph, W100%10000m1009hPa82%
27-Jun-2024 21:00Light Rain9°C7 mph, W100%10000m1010hPa91%
28-Jun-2024 00:00Light Rain10°C4 mph, W100%10000m1011hPa81%
28-Jun-2024 03:00Light Rain9°C9 mph, NE100%10000m1013hPa88%
28-Jun-2024 06:00Moderate Rain9°C7 mph, W100%10000m1013hPa83%
28-Jun-2024 09:00Moderate Rain9°C4 mph, NW100%10000m1013hPa86%
28-Jun-2024 12:00Light Rain10°C2 mph, SE84%10000m1012hPa85%
28-Jun-2024 15:00Scattered Clouds6°C4 mph, SE29%10000m1015hPa90%
28-Jun-2024 18:00Broken Clouds6°C7 mph, W52%10000m1015hPa91%
28-Jun-2024 21:00Scattered Clouds4°C7 mph, W29%10000m1015hPa89%
29-Jun-2024 00:00Few Clouds9°C4 mph, SW19%10000m1013hPa78%
29-Jun-2024 03:00Broken Clouds16°C2 mph, S52%10000m1009hPa53%
29-Jun-2024 06:00Light Rain17°C2 mph, S64%10000m1005hPa50%
29-Jun-2024 09:00Light Rain9°C9 mph, N92%10000m1010hPa87%
29-Jun-2024 12:00Light Rain9°C4 mph, S96%10000m1011hPa89%
29-Jun-2024 15:00Overcast Clouds7°C4 mph, SW97%10000m1013hPa89%
29-Jun-2024 18:00Overcast Clouds6°C2 mph, NW99%10000m1012hPa90%
29-Jun-2024 21:00Overcast Clouds6°C4 mph, NW100%10000m1012hPa93%
30-Jun-2024 00:00Light Rain9°C4 mph, SW100%10000m1011hPa87%
30-Jun-2024 03:00Light Rain14°C7 mph, N100%10000m1008hPa66%
30-Jun-2024 06:00Light Rain18°C16 mph, N81%10000m1004hPa44%
30-Jun-2024 09:00Clear Sky18°C16 mph, N3%10000m1002hPa41%
30-Jun-2024 12:00Scattered Clouds12°C7 mph, E26%10000m1005hPa70%
30-Jun-2024 15:00Light Rain6°C4 mph, NE63%6507m1013hPa96%
30-Jun-2024 18:00Light Rain5°C2 mph, W81%10000m1013hPa96%
30-Jun-2024 21:00Clear Sky5°C4 mph, W4%10000m1012hPa93%